sensor_id;sensor_type;location;lat;lon;timestamp;P1;durP1;ratioP1;P2;durP2;ratioP2
36383;SDS011;22418;51.210;6.976;2022-12-18T00:01:45;16.30;;;6.87;;
36383;SDS011;22418;51.210;6.976;2022-12-18T00:04:22;15.75;;;6.85;;
36383;SDS011;22418;51.210;6.976;2022-12-18T00:06:54;18.40;;;6.88;;
36383;SDS011;22418;51.210;6.976;2022-12-18T00:09:24;14.85;;;6.32;;
36383;SDS011;22418;51.210;6.976;2022-12-18T00:11:55;16.87;;;7.43;;
36383;SDS011;22418;51.210;6.976;2022-12-18T00:14:25;20.00;;;7.10;;
36383;SDS011;22418;51.210;6.976;2022-12-18T00:16:56;15.37;;;7.10;;
36383;SDS011;22418;51.210;6.976;2022-12-18T00:19:28;16.20;;;7.22;;
36383;SDS011;22418;51.210;6.976;2022-12-18T00:21:58;17.37;;;7.07;;
36383;SDS011;22418;51.210;6.976;2022-12-18T00:24:29;16.00;;;7.57;;
36383;SDS011;22418;51.210;6.976;2022-12-18T00:26:59;16.98;;;6.68;;
36383;SDS011;22418;51.210;6.976;2022-12-18T00:29:30;20.15;;;6.85;;
36383;SDS011;22418;51.210;6.976;2022-12-18T00:32:01;17.08;;;6.60;;
36383;SDS011;22418;51.210;6.976;2022-12-18T00:34:31;15.67;;;6.67;;
36383;SDS011;22418;51.210;6.976;2022-12-18T00:37:02;17.53;;;6.53;;
36383;SDS011;22418;51.210;6.976;2022-12-18T00:39:32;20.27;;;7.33;;
36383;SDS011;22418;51.210;6.976;2022-12-18T00:42:03;15.95;;;6.60;;
36383;SDS011;22418;51.210;6.976;2022-12-18T00:44:52;14.90;;;6.47;;
36383;SDS011;22418;51.210;6.976;2022-12-18T00:47:23;17.03;;;6.40;;
36383;SDS011;22418;51.210;6.976;2022-12-18T00:49:53;16.43;;;6.47;;
36383;SDS011;22418;51.210;6.976;2022-12-18T00:52:24;17.00;;;7.30;;
36383;SDS011;22418;51.210;6.976;2022-12-18T00:54:54;18.67;;;6.20;;
36383;SDS011;22418;51.210;6.976;2022-12-18T00:57:25;14.82;;;6.05;;
36383;SDS011;22418;51.210;6.976;2022-12-18T00:59:55;18.98;;;7.07;;
36383;SDS011;22418;51.210;6.976;2022-12-18T01:02:26;20.97;;;7.57;;
36383;SDS011;22418;51.210;6.976;2022-12-18T01:04:57;17.98;;;6.30;;
36383;SDS011;22418;51.210;6.976;2022-12-18T01:07:27;17.65;;;7.68;;
36383;SDS011;22418;51.210;6.976;2022-12-18T01:09:58;14.45;;;6.95;;
36383;SDS011;22418;51.210;6.976;2022-12-18T01:12:29;14.23;;;6.32;;
36383;SDS011;22418;51.210;6.976;2022-12-18T01:14:59;17.33;;;7.00;;
36383;SDS011;22418;51.210;6.976;2022-12-18T01:17:30;19.40;;;7.07;;
36383;SDS011;22418;51.210;6.976;2022-12-18T01:20:00;17.25;;;7.13;;
36383;SDS011;22418;51.210;6.976;2022-12-18T01:22:33;19.00;;;7.43;;
36383;SDS011;22418;51.210;6.976;2022-12-18T01:25:03;17.23;;;7.15;;
36383;SDS011;22418;51.210;6.976;2022-12-18T01:27:35;20.65;;;7.40;;
36383;SDS011;22418;51.210;6.976;2022-12-18T01:30:06;15.77;;;6.70;;
36383;SDS011;22418;51.210;6.976;2022-12-18T01:32:37;16.45;;;6.80;;
36383;SDS011;22418;51.210;6.976;2022-12-18T01:35:07;19.20;;;7.35;;
36383;SDS011;22418;51.210;6.976;2022-12-18T01:37:41;17.48;;;7.13;;
36383;SDS011;22418;51.210;6.976;2022-12-18T01:40:12;13.77;;;6.80;;
36383;SDS011;22418;51.210;6.976;2022-12-18T01:42:42;18.00;;;7.50;;
36383;SDS011;22418;51.210;6.976;2022-12-18T01:47:45;17.88;;;6.95;;
36383;SDS011;22418;51.210;6.976;2022-12-18T01:50:20;17.45;;;6.75;;
36383;SDS011;22418;51.210;6.976;2022-12-18T01:53:16;16.73;;;7.15;;
36383;SDS011;22418;51.210;6.976;2022-12-18T01:55:51;17.63;;;7.00;;
36383;SDS011;22418;51.210;6.976;2022-12-18T01:58:35;18.95;;;7.25;;
36383;SDS011;22418;51.210;6.976;2022-12-18T02:01:19;19.02;;;7.45;;
36383;SDS011;22418;51.210;6.976;2022-12-18T02:03:52;15.73;;;7.50;;
36383;SDS011;22418;51.210;6.976;2022-12-18T02:09:14;17.00;;;6.88;;
36383;SDS011;22418;51.210;6.976;2022-12-18T02:11:53;19.17;;;7.35;;
36383;SDS011;22418;51.210;6.976;2022-12-18T02:14:41;19.50;;;7.03;;
36383;SDS011;22418;51.210;6.976;2022-12-18T02:17:18;15.20;;;6.50;;
36383;SDS011;22418;51.210;6.976;2022-12-18T02:28:13;18.45;;;6.63;;
36383;SDS011;22418;51.210;6.976;2022-12-18T02:30:46;13.55;;;6.40;;
36383;SDS011;22418;51.210;6.976;2022-12-18T02:33:19;13.77;;;6.53;;
36383;SDS011;22418;51.210;6.976;2022-12-18T02:35:51;14.60;;;6.47;;
36383;SDS011;22418;51.210;6.976;2022-12-18T02:38:24;13.77;;;5.97;;
36383;SDS011;22418;51.210;6.976;2022-12-18T02:40:55;14.68;;;6.95;;
36383;SDS011;22418;51.210;6.976;2022-12-18T02:43:27;22.85;;;7.13;;
36383;SDS011;22418;51.210;6.976;2022-12-18T02:46:00;15.50;;;6.15;;
36383;SDS011;22418;51.210;6.976;2022-12-18T02:48:51;15.18;;;5.80;;
36383;SDS011;22418;51.210;6.976;2022-12-18T02:51:35;14.82;;;6.10;;
36383;SDS011;22418;51.210;6.976;2022-12-18T02:54:37;18.13;;;6.00;;
36383;SDS011;22418;51.210;6.976;2022-12-18T02:57:37;15.57;;;5.68;;
36383;SDS011;22418;51.210;6.976;2022-12-18T03:00:15;14.48;;;5.88;;
36383;SDS011;22418;51.210;6.976;2022-12-18T03:05:39;14.20;;;5.40;;
36383;SDS011;22418;51.210;6.976;2022-12-18T03:08:15;14.60;;;5.53;;
36383;SDS011;22418;51.210;6.976;2022-12-18T03:11:12;14.15;;;5.97;;
36383;SDS011;22418;51.210;6.976;2022-12-18T03:13:50;11.65;;;5.63;;
36383;SDS011;22418;51.210;6.976;2022-12-18T03:16:27;13.20;;;5.20;;
36383;SDS011;22418;51.210;6.976;2022-12-18T03:19:01;12.35;;;5.20;;
36383;SDS011;22418;51.210;6.976;2022-12-18T03:21:43;16.27;;;5.72;;
36383;SDS011;22418;51.210;6.976;2022-12-18T03:24:18;13.50;;;5.57;;
36383;SDS011;22418;51.210;6.976;2022-12-18T03:26:51;10.85;;;5.30;;
36383;SDS011;22418;51.210;6.976;2022-12-18T03:29:25;11.48;;;5.40;;
36383;SDS011;22418;51.210;6.976;2022-12-18T03:32:05;12.32;;;5.45;;
36383;SDS011;22418;51.210;6.976;2022-12-18T03:34:40;12.70;;;5.78;;
36383;SDS011;22418;51.210;6.976;2022-12-18T03:37:13;14.93;;;5.85;;
36383;SDS011;22418;51.210;6.976;2022-12-18T03:39:44;12.57;;;5.10;;
36383;SDS011;22418;51.210;6.976;2022-12-18T03:45:09;11.00;;;4.93;;
36383;SDS011;22418;51.210;6.976;2022-12-18T03:47:51;11.85;;;5.50;;
36383;SDS011;22418;51.210;6.976;2022-12-18T03:50:36;11.90;;;5.03;;
36383;SDS011;22418;51.210;6.976;2022-12-18T03:53:11;11.35;;;5.18;;
36383;SDS011;22418;51.210;6.976;2022-12-18T03:56:05;10.98;;;5.10;;
36383;SDS011;22418;51.210;6.976;2022-12-18T03:58:38;13.48;;;5.22;;
36383;SDS011;22418;51.210;6.976;2022-12-18T04:01:12;11.02;;;5.07;;
36383;SDS011;22418;51.210;6.976;2022-12-18T04:03:46;12.75;;;4.95;;
36383;SDS011;22418;51.210;6.976;2022-12-18T04:06:19;12.68;;;5.65;;
36383;SDS011;22418;51.210;6.976;2022-12-18T04:08:50;9.95;;;4.85;;
36383;SDS011;22418;51.210;6.976;2022-12-18T04:11:21;11.52;;;5.38;;
36383;SDS011;22418;51.210;6.976;2022-12-18T04:13:54;10.20;;;4.93;;
36383;SDS011;22418;51.210;6.976;2022-12-18T04:16:27;16.17;;;4.93;;
36383;SDS011;22418;51.210;6.976;2022-12-18T04:18:58;10.43;;;4.43;;
36383;SDS011;22418;51.210;6.976;2022-12-18T04:21:29;12.55;;;5.57;;
36383;SDS011;22418;51.210;6.976;2022-12-18T04:23:59;11.57;;;4.78;;
36383;SDS011;22418;51.210;6.976;2022-12-18T04:26:30;10.57;;;4.65;;
36383;SDS011;22418;51.210;6.976;2022-12-18T04:29:00;11.70;;;4.63;;
36383;SDS011;22418;51.210;6.976;2022-12-18T04:31:31;11.27;;;4.75;;
36383;SDS011;22418;51.210;6.976;2022-12-18T04:34:02;11.77;;;5.00;;
36383;SDS011;22418;51.210;6.976;2022-12-18T04:36:32;11.30;;;5.00;;
36383;SDS011;22418;51.210;6.976;2022-12-18T04:39:03;9.82;;;4.10;;
36383;SDS011;22418;51.210;6.976;2022-12-18T04:41:33;12.93;;;5.18;;
36383;SDS011;22418;51.210;6.976;2022-12-18T04:44:04;10.00;;;5.03;;
36383;SDS011;22418;51.210;6.976;2022-12-18T04:46:35;11.10;;;4.47;;
36383;SDS011;22418;51.210;6.976;2022-12-18T04:49:05;11.38;;;4.57;;
36383;SDS011;22418;51.210;6.976;2022-12-18T04:51:36;11.77;;;4.43;;
36383;SDS011;22418;51.210;6.976;2022-12-18T04:54:07;11.63;;;4.68;;
36383;SDS011;22418;51.210;6.976;2022-12-18T04:56:37;8.83;;;4.37;;
36383;SDS011;22418;51.210;6.976;2022-12-18T04:59:08;12.70;;;4.70;;
36383;SDS011;22418;51.210;6.976;2022-12-18T05:01:38;8.23;;;4.13;;
36383;SDS011;22418;51.210;6.976;2022-12-18T05:04:09;13.20;;;5.05;;
36383;SDS011;22418;51.210;6.976;2022-12-18T05:06:39;10.03;;;4.60;;
36383;SDS011;22418;51.210;6.976;2022-12-18T05:09:10;8.77;;;4.18;;
36383;SDS011;22418;51.210;6.976;2022-12-18T05:11:41;11.30;;;4.63;;
36383;SDS011;22418;51.210;6.976;2022-12-18T05:14:11;9.35;;;4.22;;
36383;SDS011;22418;51.210;6.976;2022-12-18T05:16:42;11.23;;;4.28;;
36383;SDS011;22418;51.210;6.976;2022-12-18T05:19:12;7.95;;;3.60;;
36383;SDS011;22418;51.210;6.976;2022-12-18T05:21:43;9.87;;;3.80;;
36383;SDS011;22418;51.210;6.976;2022-12-18T05:24:13;9.53;;;4.17;;
36383;SDS011;22418;51.210;6.976;2022-12-18T05:26:44;11.23;;;4.70;;
36383;SDS011;22418;51.210;6.976;2022-12-18T05:29:14;11.10;;;4.13;;
36383;SDS011;22418;51.210;6.976;2022-12-18T05:31:45;9.32;;;4.53;;
36383;SDS011;22418;51.210;6.976;2022-12-18T05:34:16;10.30;;;4.00;;
36383;SDS011;22418;51.210;6.976;2022-12-18T05:36:46;13.40;;;4.80;;
36383;SDS011;22418;51.210;6.976;2022-12-18T05:39:17;9.45;;;4.30;;
36383;SDS011;22418;51.210;6.976;2022-12-18T05:41:47;11.30;;;4.43;;
36383;SDS011;22418;51.210;6.976;2022-12-18T05:44:18;11.13;;;4.90;;
36383;SDS011;22418;51.210;6.976;2022-12-18T05:46:48;9.88;;;4.63;;
36383;SDS011;22418;51.210;6.976;2022-12-18T05:49:19;9.23;;;4.23;;
36383;SDS011;22418;51.210;6.976;2022-12-18T05:51:49;9.77;;;4.63;;
36383;SDS011;22418;51.210;6.976;2022-12-18T05:54:20;11.15;;;4.57;;
36383;SDS011;22418;51.210;6.976;2022-12-18T05:56:51;12.23;;;4.95;;
36383;SDS011;22418;51.210;6.976;2022-12-18T05:59:22;15.00;;;4.77;;
36383;SDS011;22418;51.210;6.976;2022-12-18T06:01:53;14.75;;;4.32;;
36383;SDS011;22418;51.210;6.976;2022-12-18T06:04:23;12.60;;;5.17;;
36383;SDS011;22418;51.210;6.976;2022-12-18T06:06:54;13.77;;;4.97;;
36383;SDS011;22418;51.210;6.976;2022-12-18T06:09:24;13.50;;;5.30;;
36383;SDS011;22418;51.210;6.976;2022-12-18T06:11:55;10.97;;;5.20;;
36383;SDS011;22418;51.210;6.976;2022-12-18T06:14:25;14.07;;;5.28;;
36383;SDS011;22418;51.210;6.976;2022-12-18T06:16:56;10.45;;;4.68;;
36383;SDS011;22418;51.210;6.976;2022-12-18T06:19:26;11.33;;;4.77;;
36383;SDS011;22418;51.210;6.976;2022-12-18T06:21:57;9.47;;;4.37;;
36383;SDS011;22418;51.210;6.976;2022-12-18T06:26:59;19.15;;;5.68;;
36383;SDS011;22418;51.210;6.976;2022-12-18T06:29:30;12.35;;;4.95;;
36383;SDS011;22418;51.210;6.976;2022-12-18T06:32:00;12.10;;;5.40;;
36383;SDS011;22418;51.210;6.976;2022-12-18T06:34:31;14.37;;;5.23;;
36383;SDS011;22418;51.210;6.976;2022-12-18T06:39:33;11.07;;;5.00;;
36383;SDS011;22418;51.210;6.976;2022-12-18T06:42:03;13.30;;;5.43;;
36383;SDS011;22418;51.210;6.976;2022-12-18T06:44:34;16.17;;;5.55;;
36383;SDS011;22418;51.210;6.976;2022-12-18T06:47:05;16.98;;;5.35;;
36383;SDS011;22418;51.210;6.976;2022-12-18T06:49:35;14.27;;;5.57;;
36383;SDS011;22418;51.210;6.976;2022-12-18T06:52:06;11.53;;;5.10;;
36383;SDS011;22418;51.210;6.976;2022-12-18T06:54:36;11.32;;;5.15;;
36383;SDS011;22418;51.210;6.976;2022-12-18T06:57:07;14.35;;;5.07;;
36383;SDS011;22418;51.210;6.976;2022-12-18T06:59:37;11.70;;;5.23;;
36383;SDS011;22418;51.210;6.976;2022-12-18T07:02:10;13.93;;;5.30;;
36383;SDS011;22418;51.210;6.976;2022-12-18T07:04:42;13.18;;;5.47;;
36383;SDS011;22418;51.210;6.976;2022-12-18T07:07:13;13.48;;;5.50;;
36383;SDS011;22418;51.210;6.976;2022-12-18T07:09:43;13.97;;;6.13;;
36383;SDS011;22418;51.210;6.976;2022-12-18T07:12:14;14.43;;;5.97;;
36383;SDS011;22418;51.210;6.976;2022-12-18T07:14:44;14.43;;;5.38;;
36383;SDS011;22418;51.210;6.976;2022-12-18T07:17:15;14.93;;;5.95;;
36383;SDS011;22418;51.210;6.976;2022-12-18T07:19:45;12.35;;;5.50;;
36383;SDS011;22418;51.210;6.976;2022-12-18T07:22:16;15.02;;;5.55;;
36383;SDS011;22418;51.210;6.976;2022-12-18T07:24:46;14.30;;;6.13;;
36383;SDS011;22418;51.210;6.976;2022-12-18T07:27:19;15.38;;;5.65;;
36383;SDS011;22418;51.210;6.976;2022-12-18T07:29:50;13.73;;;5.10;;
36383;SDS011;22418;51.210;6.976;2022-12-18T07:32:20;13.55;;;5.78;;
36383;SDS011;22418;51.210;6.976;2022-12-18T07:34:51;17.15;;;6.18;;
36383;SDS011;22418;51.210;6.976;2022-12-18T07:37:21;15.10;;;6.28;;
36383;SDS011;22418;51.210;6.976;2022-12-18T07:39:52;15.93;;;6.50;;
36383;SDS011;22418;51.210;6.976;2022-12-18T07:42:25;16.70;;;7.18;;
36383;SDS011;22418;51.210;6.976;2022-12-18T07:45:02;15.57;;;6.45;;
36383;SDS011;22418;51.210;6.976;2022-12-18T07:50:05;16.13;;;6.55;;
36383;SDS011;22418;51.210;6.976;2022-12-18T07:52:36;16.95;;;6.35;;
36383;SDS011;22418;51.210;6.976;2022-12-18T07:55:07;13.87;;;6.27;;
36383;SDS011;22418;51.210;6.976;2022-12-18T07:57:38;13.40;;;6.45;;
36383;SDS011;22418;51.210;6.976;2022-12-18T08:00:09;16.13;;;6.97;;
36383;SDS011;22418;51.210;6.976;2022-12-18T08:02:40;14.88;;;6.45;;
36383;SDS011;22418;51.210;6.976;2022-12-18T08:05:10;18.20;;;6.95;;
36383;SDS011;22418;51.210;6.976;2022-12-18T08:07:41;17.98;;;6.45;;
36383;SDS011;22418;51.210;6.976;2022-12-18T08:10:12;17.33;;;6.63;;
36383;SDS011;22418;51.210;6.976;2022-12-18T08:12:43;16.05;;;6.75;;
36383;SDS011;22418;51.210;6.976;2022-12-18T08:15:13;16.42;;;6.60;;
36383;SDS011;22418;51.210;6.976;2022-12-18T08:17:44;18.08;;;6.43;;
36383;SDS011;22418;51.210;6.976;2022-12-18T08:20:14;18.25;;;7.28;;
36383;SDS011;22418;51.210;6.976;2022-12-18T08:22:45;16.38;;;6.55;;
36383;SDS011;22418;51.210;6.976;2022-12-18T08:25:15;13.40;;;6.23;;
36383;SDS011;22418;51.210;6.976;2022-12-18T08:27:46;16.55;;;6.95;;
36383;SDS011;22418;51.210;6.976;2022-12-18T08:30:17;17.80;;;7.60;;
36383;SDS011;22418;51.210;6.976;2022-12-18T08:32:50;15.52;;;6.78;;
36383;SDS011;22418;51.210;6.976;2022-12-18T08:35:23;14.57;;;6.28;;
36383;SDS011;22418;51.210;6.976;2022-12-18T08:37:54;17.17;;;6.75;;
36383;SDS011;22418;51.210;6.976;2022-12-18T08:40:24;16.23;;;5.93;;
36383;SDS011;22418;51.210;6.976;2022-12-18T08:42:55;15.18;;;6.50;;
36383;SDS011;22418;51.210;6.976;2022-12-18T08:45:44;15.93;;;6.25;;
36383;SDS011;22418;51.210;6.976;2022-12-18T08:48:14;16.63;;;7.07;;
36383;SDS011;22418;51.210;6.976;2022-12-18T08:50:57;15.88;;;6.43;;
36383;SDS011;22418;51.210;6.976;2022-12-18T08:53:28;13.85;;;6.32;;
36383;SDS011;22418;51.210;6.976;2022-12-18T08:55:59;13.98;;;5.88;;
36383;SDS011;22418;51.210;6.976;2022-12-18T08:58:30;17.23;;;6.80;;
36383;SDS011;22418;51.210;6.976;2022-12-18T09:01:04;13.50;;;5.88;;
36383;SDS011;22418;51.210;6.976;2022-12-18T09:03:36;15.40;;;6.40;;
36383;SDS011;22418;51.210;6.976;2022-12-18T09:06:08;13.65;;;6.03;;
36383;SDS011;22418;51.210;6.976;2022-12-18T09:08:38;15.18;;;6.45;;
36383;SDS011;22418;51.210;6.976;2022-12-18T09:11:13;15.27;;;6.30;;
36383;SDS011;22418;51.210;6.976;2022-12-18T09:13:45;13.32;;;5.38;;
36383;SDS011;22418;51.210;6.976;2022-12-18T09:16:16;15.00;;;6.47;;
36383;SDS011;22418;51.210;6.976;2022-12-18T09:18:47;15.68;;;6.80;;
36383;SDS011;22418;51.210;6.976;2022-12-18T09:21:18;14.95;;;5.82;;
36383;SDS011;22418;51.210;6.976;2022-12-18T09:23:50;12.63;;;5.78;;
36383;SDS011;22418;51.210;6.976;2022-12-18T09:28:53;16.15;;;6.15;;
36383;SDS011;22418;51.210;6.976;2022-12-18T09:31:24;14.63;;;6.35;;
36383;SDS011;22418;51.210;6.976;2022-12-18T09:33:55;12.77;;;5.65;;
36383;SDS011;22418;51.210;6.976;2022-12-18T09:36:26;14.02;;;6.32;;
36383;SDS011;22418;51.210;6.976;2022-12-18T09:38:57;14.23;;;6.30;;
36383;SDS011;22418;51.210;6.976;2022-12-18T09:44:36;14.95;;;5.47;;
36383;SDS011;22418;51.210;6.976;2022-12-18T09:50:13;15.25;;;5.82;;
36383;SDS011;22418;51.210;6.976;2022-12-18T09:52:53;13.32;;;6.10;;
36383;SDS011;22418;51.210;6.976;2022-12-18T09:55:31;14.93;;;6.45;;
36383;SDS011;22418;51.210;6.976;2022-12-18T10:00:40;17.90;;;6.57;;
36383;SDS011;22418;51.210;6.976;2022-12-18T10:03:13;15.57;;;6.50;;
36383;SDS011;22418;51.210;6.976;2022-12-18T10:19:42;13.98;;;6.47;;
36383;SDS011;22418;51.210;6.976;2022-12-18T10:25:28;19.02;;;6.85;;
36383;SDS011;22418;51.210;6.976;2022-12-18T10:28:18;16.85;;;6.03;;
36383;SDS011;22418;51.210;6.976;2022-12-18T10:30:50;16.67;;;7.25;;
36383;SDS011;22418;51.210;6.976;2022-12-18T10:33:22;14.80;;;6.75;;
36383;SDS011;22418;51.210;6.976;2022-12-18T10:35:54;17.65;;;7.07;;
36383;SDS011;22418;51.210;6.976;2022-12-18T10:38:29;16.60;;;6.07;;
36383;SDS011;22418;51.210;6.976;2022-12-18T10:41:03;13.13;;;6.18;;
36383;SDS011;22418;51.210;6.976;2022-12-18T10:44:14;15.88;;;6.75;;
36383;SDS011;22418;51.210;6.976;2022-12-18T10:47:02;14.35;;;6.53;;
36383;SDS011;22418;51.210;6.976;2022-12-18T10:49:34;13.52;;;6.43;;
36383;SDS011;22418;51.210;6.976;2022-12-18T10:52:07;13.98;;;6.63;;
36383;SDS011;22418;51.210;6.976;2022-12-18T10:55:15;15.32;;;7.43;;
36383;SDS011;22418;51.210;6.976;2022-12-18T10:57:46;14.65;;;6.68;;
36383;SDS011;22418;51.210;6.976;2022-12-18T11:00:27;17.27;;;7.70;;
36383;SDS011;22418;51.210;6.976;2022-12-18T11:02:59;15.43;;;6.88;;
36383;SDS011;22418;51.210;6.976;2022-12-18T11:05:31;19.67;;;6.73;;
36383;SDS011;22418;51.210;6.976;2022-12-18T11:08:11;14.95;;;6.15;;
36383;SDS011;22418;51.210;6.976;2022-12-18T11:10:51;21.25;;;7.30;;
36383;SDS011;22418;51.210;6.976;2022-12-18T11:13:23;17.67;;;7.57;;
36383;SDS011;22418;51.210;6.976;2022-12-18T11:15:55;17.60;;;7.28;;
36383;SDS011;22418;51.210;6.976;2022-12-18T11:18:30;14.57;;;6.55;;
36383;SDS011;22418;51.210;6.976;2022-12-18T11:21:07;16.58;;;7.47;;
36383;SDS011;22418;51.210;6.976;2022-12-18T11:23:52;15.88;;;7.55;;
36383;SDS011;22418;51.210;6.976;2022-12-18T11:26:32;18.35;;;6.70;;
36383;SDS011;22418;51.210;6.976;2022-12-18T11:29:08;18.58;;;7.95;;
36383;SDS011;22418;51.210;6.976;2022-12-18T11:31:41;20.58;;;6.95;;
36383;SDS011;22418;51.210;6.976;2022-12-18T11:34:12;17.70;;;7.43;;
36383;SDS011;22418;51.210;6.976;2022-12-18T11:36:50;19.65;;;7.78;;
36383;SDS011;22418;51.210;6.976;2022-12-18T11:39:34;17.92;;;8.05;;
36383;SDS011;22418;51.210;6.976;2022-12-18T11:42:12;17.38;;;7.80;;
36383;SDS011;22418;51.210;6.976;2022-12-18T11:44:50;18.48;;;7.15;;
36383;SDS011;22418;51.210;6.976;2022-12-18T11:50:14;18.50;;;7.60;;
36383;SDS011;22418;51.210;6.976;2022-12-18T11:52:48;17.10;;;6.95;;
36383;SDS011;22418;51.210;6.976;2022-12-18T11:55:31;15.60;;;7.40;;
36383;SDS011;22418;51.210;6.976;2022-12-18T11:58:17;16.50;;;7.63;;
36383;SDS011;22418;51.210;6.976;2022-12-18T12:12:49;16.70;;;8.55;;
36383;SDS011;22418;51.210;6.976;2022-12-18T12:20:59;17.90;;;8.00;;
36383;SDS011;22418;51.210;6.976;2022-12-18T12:32:45;19.27;;;8.75;;
36383;SDS011;22418;51.210;6.976;2022-12-18T12:38:28;19.23;;;8.90;;
36383;SDS011;22418;51.210;6.976;2022-12-18T12:41:13;22.67;;;9.07;;
36383;SDS011;22418;51.210;6.976;2022-12-18T12:44:07;19.33;;;8.93;;
36383;SDS011;22418;51.210;6.976;2022-12-18T12:46:44;24.60;;;9.25;;
36383;SDS011;22418;51.210;6.976;2022-12-18T12:52:04;22.52;;;9.43;;
36383;SDS011;22418;51.210;6.976;2022-12-18T12:54:40;23.67;;;10.07;;
36383;SDS011;22418;51.210;6.976;2022-12-18T13:00:05;23.42;;;10.50;;
36383;SDS011;22418;51.210;6.976;2022-12-18T13:08:27;28.48;;;11.38;;
36383;SDS011;22418;51.210;6.976;2022-12-18T13:10:59;26.02;;;11.10;;
36383;SDS011;22418;51.210;6.976;2022-12-18T13:13:53;25.08;;;11.80;;
36383;SDS011;22418;51.210;6.976;2022-12-18T13:16:25;27.45;;;11.63;;
36383;SDS011;22418;51.210;6.976;2022-12-18T13:18:57;30.92;;;12.07;;
36383;SDS011;22418;51.210;6.976;2022-12-18T13:21:29;28.30;;;12.70;;
36383;SDS011;22418;51.210;6.976;2022-12-18T13:24:14;25.92;;;11.65;;
36383;SDS011;22418;51.210;6.976;2022-12-18T13:26:56;26.70;;;11.23;;
36383;SDS011;22418;51.210;6.976;2022-12-18T13:29:45;25.50;;;12.18;;
36383;SDS011;22418;51.210;6.976;2022-12-18T13:32:20;24.95;;;11.35;;
36383;SDS011;22418;51.210;6.976;2022-12-18T13:37:52;24.90;;;11.93;;
36383;SDS011;22418;51.210;6.976;2022-12-18T13:48:36;31.25;;;12.60;;
36383;SDS011;22418;51.210;6.976;2022-12-18T13:51:09;28.67;;;12.02;;
36383;SDS011;22418;51.210;6.976;2022-12-18T13:53:51;27.70;;;12.60;;
36383;SDS011;22418;51.210;6.976;2022-12-18T13:56:31;32.05;;;13.57;;
36383;SDS011;22418;51.210;6.976;2022-12-18T13:59:13;35.95;;;12.98;;
36383;SDS011;22418;51.210;6.976;2022-12-18T14:07:03;30.13;;;13.00;;
36383;SDS011;22418;51.210;6.976;2022-12-18T14:09:36;26.33;;;12.70;;
36383;SDS011;22418;51.210;6.976;2022-12-18T14:12:14;28.98;;;13.20;;
36383;SDS011;22418;51.210;6.976;2022-12-18T14:20:29;31.80;;;13.50;;
36383;SDS011;22418;51.210;6.976;2022-12-18T14:23:02;29.45;;;13.45;;
36383;SDS011;22418;51.210;6.976;2022-12-18T14:25:33;27.23;;;12.70;;
36383;SDS011;22418;51.210;6.976;2022-12-18T14:30:38;29.52;;;13.00;;
36383;SDS011;22418;51.210;6.976;2022-12-18T14:33:12;29.55;;;13.18;;
36383;SDS011;22418;51.210;6.976;2022-12-18T14:36:04;33.63;;;13.82;;
36383;SDS011;22418;51.210;6.976;2022-12-18T14:38:36;31.20;;;13.05;;
36383;SDS011;22418;51.210;6.976;2022-12-18T14:41:11;34.50;;;14.18;;
36383;SDS011;22418;51.210;6.976;2022-12-18T14:43:44;33.95;;;13.55;;
36383;SDS011;22418;51.210;6.976;2022-12-18T14:49:03;32.38;;;14.95;;
36383;SDS011;22418;51.210;6.976;2022-12-18T14:51:54;32.63;;;13.88;;
36383;SDS011;22418;51.210;6.976;2022-12-18T14:54:27;37.40;;;14.48;;
36383;SDS011;22418;51.210;6.976;2022-12-18T14:59:46;32.83;;;14.23;;
36383;SDS011;22418;51.210;6.976;2022-12-18T15:02:18;32.50;;;13.30;;
36383;SDS011;22418;51.210;6.976;2022-12-18T15:05:04;37.40;;;15.90;;
36383;SDS011;22418;51.210;6.976;2022-12-18T15:07:56;32.75;;;14.02;;
36383;SDS011;22418;51.210;6.976;2022-12-18T15:10:29;29.77;;;14.15;;
36383;SDS011;22418;51.210;6.976;2022-12-18T15:20:41;36.23;;;14.93;;
36383;SDS011;22418;51.210;6.976;2022-12-18T15:25:56;39.97;;;15.38;;
36383;SDS011;22418;51.210;6.976;2022-12-18T15:28:36;34.55;;;15.05;;
36383;SDS011;22418;51.210;6.976;2022-12-18T15:31:57;35.08;;;14.93;;
36383;SDS011;22418;51.210;6.976;2022-12-18T15:34:27;36.03;;;14.82;;
36383;SDS011;22418;51.210;6.976;2022-12-18T15:36:58;38.83;;;15.80;;
36383;SDS011;22418;51.210;6.976;2022-12-18T15:39:28;36.97;;;16.33;;
36383;SDS011;22418;51.210;6.976;2022-12-18T15:42:00;37.17;;;15.20;;
36383;SDS011;22418;51.210;6.976;2022-12-18T15:44:49;37.17;;;15.77;;
36383;SDS011;22418;51.210;6.976;2022-12-18T15:47:20;36.17;;;16.20;;
36383;SDS011;22418;51.210;6.976;2022-12-18T15:49:50;30.73;;;14.20;;
36383;SDS011;22418;51.210;6.976;2022-12-18T15:52:21;36.77;;;16.37;;
36383;SDS011;22418;51.210;6.976;2022-12-18T15:54:55;38.15;;;16.70;;
36383;SDS011;22418;51.210;6.976;2022-12-18T15:57:44;39.15;;;16.40;;
36383;SDS011;22418;51.210;6.976;2022-12-18T16:00:15;34.30;;;16.03;;
36383;SDS011;22418;51.210;6.976;2022-12-18T16:02:46;35.70;;;16.65;;
36383;SDS011;22418;51.210;6.976;2022-12-18T16:05:17;43.17;;;18.83;;
36383;SDS011;22418;51.210;6.976;2022-12-18T16:07:48;36.22;;;17.10;;
36383;SDS011;22418;51.210;6.976;2022-12-18T16:10:19;39.33;;;16.60;;
36383;SDS011;22418;51.210;6.976;2022-12-18T16:12:50;39.83;;;16.90;;
36383;SDS011;22418;51.210;6.976;2022-12-18T16:15:20;38.37;;;17.50;;
36383;SDS011;22418;51.210;6.976;2022-12-18T16:17:51;39.15;;;17.25;;
36383;SDS011;22418;51.210;6.976;2022-12-18T16:20:22;41.57;;;17.67;;
36383;SDS011;22418;51.210;6.976;2022-12-18T16:22:53;43.58;;;17.90;;
36383;SDS011;22418;51.210;6.976;2022-12-18T16:25:25;40.53;;;17.30;;
36383;SDS011;22418;51.210;6.976;2022-12-18T16:27:57;38.78;;;16.42;;
36383;SDS011;22418;51.210;6.976;2022-12-18T16:30:28;39.73;;;16.73;;
36383;SDS011;22418;51.210;6.976;2022-12-18T16:33:00;40.38;;;17.83;;
36383;SDS011;22418;51.210;6.976;2022-12-18T16:35:31;44.20;;;18.25;;
36383;SDS011;22418;51.210;6.976;2022-12-18T16:38:02;46.15;;;18.45;;
36383;SDS011;22418;51.210;6.976;2022-12-18T16:40:33;39.57;;;17.90;;
36383;SDS011;22418;51.210;6.976;2022-12-18T16:43:23;41.63;;;18.13;;
36383;SDS011;22418;51.210;6.976;2022-12-18T16:45:54;49.30;;;19.80;;
36383;SDS011;22418;51.210;6.976;2022-12-18T16:48:27;46.20;;;19.80;;
36383;SDS011;22418;51.210;6.976;2022-12-18T16:51:01;44.87;;;18.90;;
36383;SDS011;22418;51.210;6.976;2022-12-18T16:53:33;49.25;;;18.88;;
36383;SDS011;22418;51.210;6.976;2022-12-18T16:56:03;43.00;;;19.27;;
36383;SDS011;22418;51.210;6.976;2022-12-18T16:58:34;45.40;;;20.33;;
36383;SDS011;22418;51.210;6.976;2022-12-18T17:01:09;45.07;;;19.20;;
36383;SDS011;22418;51.210;6.976;2022-12-18T17:03:40;47.78;;;20.05;;
36383;SDS011;22418;51.210;6.976;2022-12-18T17:06:10;44.00;;;20.37;;
36383;SDS011;22418;51.210;6.976;2022-12-18T17:08:41;47.50;;;19.63;;
36383;SDS011;22418;51.210;6.976;2022-12-18T17:11:12;50.80;;;20.33;;
36383;SDS011;22418;51.210;6.976;2022-12-18T17:13:42;47.92;;;19.80;;
36383;SDS011;22418;51.210;6.976;2022-12-18T17:16:13;44.57;;;20.03;;
36383;SDS011;22418;51.210;6.976;2022-12-18T17:18:44;46.13;;;19.73;;
36383;SDS011;22418;51.210;6.976;2022-12-18T17:21:15;47.33;;;19.92;;
36383;SDS011;22418;51.210;6.976;2022-12-18T17:23:45;53.13;;;21.38;;
36383;SDS011;22418;51.210;6.976;2022-12-18T17:26:16;55.80;;;21.27;;
36383;SDS011;22418;51.210;6.976;2022-12-18T17:28:47;51.42;;;20.63;;
36383;SDS011;22418;51.210;6.976;2022-12-18T17:31:18;50.47;;;20.90;;